Aviation Digital Data Service (ADDS)

Output produced by METARs form (0841 UTC 24 March 2019)
found at http://www.aviationweather.gov/metar/data/
 
METAR text: FPST 240800Z 21006KT 9999 TS FEW025CB BKN040 28/25 Q1012 NOSIG
Conditions at: FPST (SAO TOME IL/SALA, ST) observed 0800 UTC 24 March 2019
Temperature: 28.0°C (82°F)
Dewpoint: 25.0°C (77°F) [RH = 84%]
Pressure (altimeter): 29.88 inches Hg (1012.0 mb)
Winds: from the SSW (210 degrees) at 7 MPH (6 knots; 3.1 m/s)
Visibility: 6 or more miles (10+ km)
Ceiling: 4000 feet AGL
Clouds: few clouds at 2500 feet AGL
broken clouds at 4000 feet AGL
Weather: TS  (thunderstorm)

METAR text: FPST 231900Z 03006KT 9999 FEW020CB BKN040 29/26 Q1009 NOSIG
Conditions at: FPST (SAO TOME IL/SALA, ST) observed 1900 UTC 23 March 2019
Temperature: 29.0°C (84°F)
Dewpoint: 26.0°C (79°F) [RH = 84%]
Pressure (altimeter): 29.79 inches Hg (1009.0 mb)
Winds: from the NNE (30 degrees) at 7 MPH (6 knots; 3.1 m/s)
Visibility: 6 or more miles (10+ km)
Ceiling: 4000 feet AGL
Clouds: few clouds at 2000 feet AGL
broken clouds at 4000 feet AGL
Weather: no significant weather observed at this time

METAR text: FPST 231800Z 04003KT 9999 FEW020CB BKN040 29/26 Q1008 NOSIG
Conditions at: FPST (SAO TOME IL/SALA, ST) observed 1800 UTC 23 March 2019
Temperature: 29.0°C (84°F)
Dewpoint: 26.0°C (79°F) [RH = 84%]
Pressure (altimeter): 29.76 inches Hg (1008.0 mb)
Winds: from the NE (40 degrees) at 3 MPH (3 knots; 1.5 m/s)
Visibility: 6 or more miles (10+ km)
Ceiling: 4000 feet AGL
Clouds: few clouds at 2000 feet AGL
broken clouds at 4000 feet AGL
Weather: no significant weather observed at this time

METAR text: FPST 231700Z 09003KT 9999 FEW020CB BKN040 30/27 Q1008 N0SIG
Conditions at: FPST (SAO TOME IL/SALA, ST) observed 1700 UTC 23 March 2019
Temperature: 30.0°C (86°F)
Dewpoint: 27.0°C (81°F) [RH = 84%]
Pressure (altimeter): 29.76 inches Hg (1008.0 mb)
Winds: from the E (90 degrees) at 3 MPH (3 knots; 1.5 m/s)
Visibility: 6 or more miles (10+ km)
Ceiling: 4000 feet AGL
Clouds: few clouds at 2000 feet AGL
broken clouds at 4000 feet AGL
Weather: no significant weather observed at this time

METAR text: FPST 231600Z 12007KT 9999 FEW020CB BKN040 31/26 Q1008 NOSIG
Conditions at: FPST (SAO TOME IL/SALA, ST) observed 1600 UTC 23 March 2019
Temperature: 31.0°C (88°F)
Dewpoint: 26.0°C (79°F) [RH = 75%]
Pressure (altimeter): 29.76 inches Hg (1008.0 mb)
Winds: from the ESE (120 degrees) at 8 MPH (7 knots; 3.6 m/s)
Visibility: 6 or more miles (10+ km)
Ceiling: 4000 feet AGL
Clouds: few clouds at 2000 feet AGL
broken clouds at 4000 feet AGL
Weather: no significant weather observed at this time

METAR text: FPST 231500Z 36004KT 9999 FRE025CB BKN040 31/26 Q1008 NOSIG
Conditions at: FPST (SAO TOME IL/SALA, ST) observed 1500 UTC 23 March 2019
Temperature: 31.0°C (88°F)
Dewpoint: 26.0°C (79°F) [RH = 75%]
Pressure (altimeter): 29.76 inches Hg (1008.0 mb)
Winds: from the N (360 degrees) at 5 MPH (4 knots; 2.1 m/s)
Visibility: 6 or more miles (10+ km)
Ceiling: 4000 feet AGL
Clouds: broken clouds at 4000 feet AGL
Weather: no significant weather observed at this time

METAR text: FPST 231400Z 32010KT 9999 FEW020CB BKN040 32/26 Q1009 NOSIG
Conditions at: FPST (SAO TOME IL/SALA, ST) observed 1400 UTC 23 March 2019
Temperature: 32.0°C (90°F)
Dewpoint: 26.0°C (79°F) [RH = 71%]
Pressure (altimeter): 29.79 inches Hg (1009.0 mb)
Winds: from the NW (320 degrees) at 12 MPH (10 knots; 5.1 m/s)
Visibility: 6 or more miles (10+ km)
Ceiling: 4000 feet AGL
Clouds: few clouds at 2000 feet AGL
broken clouds at 4000 feet AGL
Weather: no significant weather observed at this time

METAR text: FPST 231300Z 01008KT 9999 FEW023CB BKN033 32/26 Q1010
Conditions at: FPST (SAO TOME IL/SALA, ST) observed 1300 UTC 23 March 2019
Temperature: 32.0°C (90°F)
Dewpoint: 26.0°C (79°F) [RH = 71%]
Pressure (altimeter): 29.82 inches Hg (1010.0 mb)
Winds: from the N (10 degrees) at 9 MPH (8 knots; 4.1 m/s)
Visibility: 6 or more miles (10+ km)
Ceiling: 3300 feet AGL
Clouds: few clouds at 2300 feet AGL
broken clouds at 3300 feet AGL
Weather: no significant weather observed at this time

METAR text: FPST 231200Z 11008KT 9999 FEW023CB BKN250 32/26 Q1011
Conditions at: FPST (SAO TOME IL/SALA, ST) observed 1200 UTC 23 March 2019
Temperature: 32.0°C (90°F)
Dewpoint: 26.0°C (79°F) [RH = 71%]
Pressure (altimeter): 29.85 inches Hg (1011.0 mb)
Winds: from the ESE (110 degrees) at 9 MPH (8 knots; 4.1 m/s)
Visibility: 6 or more miles (10+ km)
Ceiling: 25000 feet AGL
Clouds: few clouds at 2300 feet AGL
broken clouds at 25000 feet AGL
Weather: no significant weather observed at this time

METAR text: FPST 231100Z 15005KT 9999 FEW023CB SCT040 BKN250 31/26 Q1012
Conditions at: FPST (SAO TOME IL/SALA, ST) observed 1100 UTC 23 March 2019
Temperature: 31.0°C (88°F)
Dewpoint: 26.0°C (79°F) [RH = 75%]
Pressure (altimeter): 29.88 inches Hg (1012.0 mb)
Winds: from the SSE (150 degrees) at 6 MPH (5 knots; 2.6 m/s)
Visibility: 6 or more miles (10+ km)
Ceiling: 25000 feet AGL
Clouds: few clouds at 2300 feet AGL
scattered clouds at 4000 feet AGL
broken clouds at 25000 feet AGL
Weather: no significant weather observed at this time

METAR text: FPST 231000Z 14008KT 9999 FEW025CB BKN040 31/25 Q1012
Conditions at: FPST (SAO TOME IL/SALA, ST) observed 1000 UTC 23 March 2019
Temperature: 31.0°C (88°F)
Dewpoint: 25.0°C (77°F) [RH = 71%]
Pressure (altimeter): 29.88 inches Hg (1012.0 mb)
Winds: from the SE (140 degrees) at 9 MPH (8 knots; 4.1 m/s)
Visibility: 6 or more miles (10+ km)
Ceiling: 4000 feet AGL
Clouds: few clouds at 2500 feet AGL
broken clouds at 4000 feet AGL
Weather: no significant weather observed at this time

METAR text: FPST 230900Z 14006KT 9999 FEW025CB SCT040 BKN110 30/25 Q1012 NOSIG
Conditions at: FPST (SAO TOME IL/SALA, ST) observed 0900 UTC 23 March 2019
Temperature: 30.0°C (86°F)
Dewpoint: 25.0°C (77°F) [RH = 75%]
Pressure (altimeter): 29.88 inches Hg (1012.0 mb)
Winds: from the SE (140 degrees) at 7 MPH (6 knots; 3.1 m/s)
Visibility: 6 or more miles (10+ km)
Ceiling: 11000 feet AGL
Clouds: few clouds at 2500 feet AGL
scattered clouds at 4000 feet AGL
broken clouds at 11000 feet AGL
Weather: no significant weather observed at this time

METAR text: FPST 230600Z 18005KT 9999 FEW025CB SCT033 25/23 Q1011 NOSIG
Conditions at: FPST (SAO TOME IL/SALA, ST) observed 0600 UTC 23 March 2019
Temperature: 25.0°C (77°F)
Dewpoint: 23.0°C (73°F) [RH = 89%]
Pressure (altimeter): 29.85 inches Hg (1011.0 mb)
Winds: from the S (180 degrees) at 6 MPH (5 knots; 2.6 m/s)
Visibility: 6 or more miles (10+ km)
Ceiling: at least 12,000 feet AGL
Clouds: few clouds at 2500 feet AGL
scattered clouds at 3300 feet AGL
Weather: no significant weather observed at this time

METAR text: FPST 230300Z 09005KT 9999 FEW023CB BKN033 26/24 Q1009 NOSIG
Conditions at: FPST (SAO TOME IL/SALA, ST) observed 0300 UTC 23 March 2019
Temperature: 26.0°C (79°F)
Dewpoint: 24.0°C (75°F) [RH = 89%]
Pressure (altimeter): 29.79 inches Hg (1009.0 mb)
Winds: from the E (90 degrees) at 6 MPH (5 knots; 2.6 m/s)
Visibility: 6 or more miles (10+ km)
Ceiling: 3300 feet AGL
Clouds: few clouds at 2300 feet AGL
broken clouds at 3300 feet AGL
Weather: no significant weather observed at this time

METAR text: FPST 230200Z 22005KT 9999 TS FEW020CB BKN033 26/24 Q1009 NOSIG
Conditions at: FPST (SAO TOME IL/SALA, ST) observed 0200 UTC 23 March 2019
Temperature: 26.0°C (79°F)
Dewpoint: 24.0°C (75°F) [RH = 89%]
Pressure (altimeter): 29.79 inches Hg (1009.0 mb)
Winds: from the SW (220 degrees) at 6 MPH (5 knots; 2.6 m/s)
Visibility: 6 or more miles (10+ km)
Ceiling: 3300 feet AGL
Clouds: few clouds at 2000 feet AGL
broken clouds at 3300 feet AGL
Weather: TS  (thunderstorm)

METAR text: FPST 230000Z 18007KT 9999 TS FEW020CB OVC033 26/23 Q1010 NOSIG
Conditions at: FPST (SAO TOME IL/SALA, ST) observed 0000 UTC 23 March 2019
Temperature: 26.0°C (79°F)
Dewpoint: 23.0°C (73°F) [RH = 84%]
Pressure (altimeter): 29.82 inches Hg (1010.0 mb)
Winds: from the S (180 degrees) at 8 MPH (7 knots; 3.6 m/s)
Visibility: 6 or more miles (10+ km)
Ceiling: 3300 feet AGL
Clouds: few clouds at 2000 feet AGL
overcast cloud deck at 3300 feet AGL
Weather: TS  (thunderstorm)

METAR text: FPST 222300Z 14010KT 9999 TS FEW020CB OVC033 26/24 Q1012 NOSIG
Conditions at: FPST (SAO TOME IL/SALA, ST) observed 2300 UTC 22 March 2019
Temperature: 26.0°C (79°F)
Dewpoint: 24.0°C (75°F) [RH = 89%]
Pressure (altimeter): 29.88 inches Hg (1012.0 mb)
Winds: from the SE (140 degrees) at 12 MPH (10 knots; 5.1 m/s)
Visibility: 6 or more miles (10+ km)
Ceiling: 3300 feet AGL
Clouds: few clouds at 2000 feet AGL
overcast cloud deck at 3300 feet AGL
Weather: TS  (thunderstorm)

METAR text: FPST 222200Z 07009KT 9999 TS FEW020CB OVC033 27/24 Q1012 NOSIG
Conditions at: FPST (SAO TOME IL/SALA, ST) observed 2200 UTC 22 March 2019
Temperature: 27.0°C (81°F)
Dewpoint: 24.0°C (75°F) [RH = 84%]
Pressure (altimeter): 29.88 inches Hg (1012.0 mb)
Winds: from the ENE (70 degrees) at 10 MPH (9 knots; 4.6 m/s)
Visibility: 6 or more miles (10+ km)
Ceiling: 3300 feet AGL
Clouds: few clouds at 2000 feet AGL
overcast cloud deck at 3300 feet AGL
Weather: TS  (thunderstorm)

METAR text: FPST 222100Z 05009KT 9999 FEW020CB BKN040 27/24 Q1010 NOSIG
Conditions at: FPST (SAO TOME IL/SALA, ST) observed 2100 UTC 22 March 2019
Temperature: 27.0°C (81°F)
Dewpoint: 24.0°C (75°F) [RH = 84%]
Pressure (altimeter): 29.82 inches Hg (1010.0 mb)
Winds: from the NE (50 degrees) at 10 MPH (9 knots; 4.6 m/s)
Visibility: 6 or more miles (10+ km)
Ceiling: 4000 feet AGL
Clouds: few clouds at 2000 feet AGL
broken clouds at 4000 feet AGL
Weather: no significant weather observed at this time